Time;durP1;ratioP1;P1;durP2;ratioP2;P2;SDS_P1;SDS_P2;PMS_P1;PMS_P2;Temp;Humidity;BMP_temperature;BMP_pressure;BME280_temperature;BME280_humidity;BME280_pressure;Samples;Min_cycle;Max_cycle;Signal;HPM_P1;HPM_P2
2022/12/22 03:26:04;;;;;;;2.95;1.50;;;6.40;99.90;;;;;;7593833;19;20007;-76
2022/12/22 03:28:36;;;;;;;1.60;1.40;;;6.50;99.90;;;;;;7591800;19;20023;-76
2022/12/22 03:31:08;;;;;;;2.53;1.50;;;6.60;99.90;;;;;;7599919;19;20090;-76
2022/12/22 03:33:40;;;;;;;1.95;1.30;;;6.60;99.90;;;;;;7588795;19;20021;-74
2022/12/22 03:36:12;;;;;;;2.08;1.40;;;6.70;99.90;;;;;;7601987;19;20014;-76
2022/12/22 03:38:44;;;;;;;1.30;1.20;;;6.70;99.90;;;;;;7596916;19;20022;-74
2022/12/22 03:46:58;;;;;;;2.67;1.25;;;6.90;99.90;;;;;;7584064;19;20014;-74
2022/12/22 03:49:31;;;;;;;2.55;1.63;;;6.90;99.90;;;;;;7602254;19;20035;-76
2022/12/22 03:52:03;;;;;;;3.35;1.30;;;6.90;99.90;;;;;;7605942;19;20358;-77
2022/12/22 03:54:35;;;;;;;2.38;1.67;;;6.80;99.90;;;;;;7594108;19;20011;-75
2022/12/22 03:57:07;;;;;;;2.28;1.30;;;6.90;99.90;;;;;;7586151;19;20019;-75
2022/12/22 03:59:39;;;;;;;5.13;1.75;;;6.80;99.90;;;;;;7590470;19;20025;-76
2022/12/22 04:02:11;;;;;;;5.03;1.52;;;6.80;99.90;;;;;;7607101;19;20019;-77
2022/12/22 04:04:43;;;;;;;2.35;1.63;;;6.80;99.90;;;;;;7578960;19;20023;-75
2022/12/22 04:07:16;;;;;;;2.33;1.58;;;6.80;99.90;;;;;;7606183;19;20618;-76
2022/12/22 04:12:54;;;;;;;7.47;1.83;;;6.70;99.90;;;;;;7588166;19;20050;-74
2022/12/22 04:15:29;;;;;;;3.10;1.80;;;6.70;99.90;;;;;;7608807;19;20014;-75
2022/12/22 04:18:01;;;;;;;2.95;1.83;;;6.80;99.90;;;;;;7602475;19;20021;-77
2022/12/22 04:20:33;;;;;;;2.35;1.50;;;6.80;99.90;;;;;;7610484;19;20029;-75
2022/12/22 04:23:05;;;;;;;2.55;1.98;;;6.80;99.90;;;;;;7598648;19;20354;-76
2022/12/22 04:25:37;;;;;;;4.00;1.80;;;6.80;99.90;;;;;;7600454;19;21269;-76
2022/12/22 04:28:10;;;;;;;4.82;1.98;;;6.90;99.90;;;;;;7605001;19;20043;-77
2022/12/22 04:31:09;;;;;;;4.18;2.10;;;6.80;99.90;;;;;;7601804;19;20010;-75
2022/12/22 04:33:41;;;;;;;3.35;1.98;;;6.70;99.90;;;;;;7609365;19;20042;-75
2022/12/22 04:36:13;;;;;;;3.83;2.30;;;6.70;99.90;;;;;;7623483;19;20017;-75
2022/12/22 04:38:45;;;;;;;4.07;2.42;;;6.70;99.90;;;;;;7596442;19;20014;-75
2022/12/22 04:41:17;;;;;;;2.95;2.10;;;6.70;99.90;;;;;;7602318;19;20109;-76
2022/12/22 04:43:49;;;;;;;2.67;2.15;;;6.70;99.90;;;;;;7601257;19;20025;-76
2022/12/22 04:46:22;;;;;;;5.40;1.90;;;6.70;99.90;;;;;;7606516;19;20017;-76
2022/12/22 04:48:54;;;;;;;5.60;2.45;;;6.70;99.90;;;;;;7602993;19;20023;-75
2022/12/22 04:51:31;;;;;;;3.97;2.40;;;6.70;99.90;;;;;;7589189;19;20014;-76
2022/12/22 04:54:03;;;;;;;5.88;2.72;;;6.80;99.90;;;;;;7584219;19;20014;-75
2022/12/22 04:56:35;;;;;;;4.22;2.40;;;6.70;99.90;;;;;;7611164;19;20014;-76
2022/12/22 04:59:08;;;;;;;5.72;2.33;;;6.70;99.90;;;;;;7599916;19;20123;-77
2022/12/22 05:01:40;;;;;;;3.75;2.20;;;6.70;99.90;;;;;;7602408;19;20751;-76
2022/12/22 05:04:12;;;;;;;12.32;5.53;;;6.70;99.90;;;;;;7609682;19;20022;-75
2022/12/22 05:06:50;;;;;;;31.17;14.07;;;6.70;99.90;;;;;;7611750;19;20714;-76
2022/12/22 05:09:23;;;;;;;10.93;4.70;;;6.70;99.90;;;;;;7596823;19;20138;-75
2022/12/22 05:11:55;;;;;;;6.03;3.00;;;6.60;99.90;;;;;;7590652;19;20019;-76
2022/12/22 05:14:27;;;;;;;5.72;2.90;;;6.60;99.90;;;;;;7593506;19;20018;-75
2022/12/22 05:16:59;;;;;;;7.65;2.88;;;6.60;99.90;;;;;;7586909;19;20105;-74
2022/12/22 05:19:31;;;;;;;9.48;2.78;;;6.60;99.90;;;;;;7599063;19;20643;-75
2022/12/22 05:22:03;;;;;;;8.00;3.28;;;6.60;99.90;;;;;;7594361;19;20010;-75
2022/12/22 05:24:35;;;;;;;13.52;4.00;;;6.60;99.90;;;;;;7592102;19;20010;-77
2022/12/22 05:27:10;;;;;;;14.27;7.60;;;6.60;99.90;;;;;;7594376;19;20011;-76
2022/12/22 05:29:42;;;;;;;16.10;8.52;;;6.60;99.90;;;;;;7594988;19;20021;-77
2022/12/22 05:32:14;;;;;;;11.27;6.25;;;6.60;99.90;;;;;;7590817;19;20030;-75
2022/12/22 05:34:46;;;;;;;12.88;6.35;;;6.60;99.90;;;;;;7589281;19;20014;-73
2022/12/22 05:37:18;;;;;;;8.90;4.45;;;6.60;99.90;;;;;;7593247;19;20045;-75
2022/12/22 05:39:50;;;;;;;9.55;4.13;;;6.60;99.90;;;;;;7567292;19;20056;-74
2022/12/22 05:42:35;;;;;;;6.90;3.53;;;6.70;99.90;;;;;;7564393;19;20590;-76
2022/12/22 05:45:11;;;;;;;4.30;2.83;;;6.60;99.90;;;;;;7568097;19;20011;-74
2022/12/22 05:47:45;;;;;;;7.15;2.53;;;6.50;99.90;;;;;;7574019;19;20019;-75
2022/12/22 05:50:23;;;;;;;6.93;2.90;;;6.50;99.90;;;;;;7547093;19;20020;-74
2022/12/22 05:53:04;;;;;;;5.82;2.65;;;6.50;99.90;;;;;;7568631;19;20014;-76
2022/12/22 05:55:36;;;;;;;3.95;2.60;;;6.50;99.90;;;;;;7556144;19;20026;-74
2022/12/22 05:58:08;;;;;;;8.10;2.75;;;6.40;99.90;;;;;;7573612;19;20025;-75
2022/12/22 06:00:40;;;;;;;10.15;3.13;;;6.40;99.90;;;;;;7573600;19;20014;-76
2022/12/22 06:03:12;;;;;;;7.90;2.40;;;6.30;99.90;;;;;;7579619;19;20364;-77
2022/12/22 06:05:48;;;;;;;5.65;2.85;;;6.30;99.90;;;;;;7578675;19;20037;-76
2022/12/22 06:08:22;;;;;;;5.93;2.10;;;6.40;99.90;;;;;;7568539;19;20051;-76
2022/12/22 06:10:56;;;;;;;12.75;3.05;;;6.30;99.90;;;;;;7582628;19;20018;-76
2022/12/22 06:13:28;;;;;;;3.90;1.95;;;6.30;99.90;;;;;;7585917;19;20592;-75
2022/12/22 06:16:00;;;;;;;8.45;2.60;;;6.30;99.90;;;;;;7590527;19;20386;-77
2022/12/22 06:18:33;;;;;;;5.50;2.78;;;6.30;99.90;;;;;;7587733;19;20043;-74
2022/12/22 06:21:05;;;;;;;5.63;2.40;;;6.20;99.90;;;;;;7552538;19;20018;-74
2022/12/22 06:27:48;;;;;;;10.00;2.92;;;6.20;99.90;;;;;;7559178;19;20010;-74
2022/12/22 06:30:21;;;;;;;8.18;2.63;;;6.10;99.90;;;;;;7588396;19;20040;-77
2022/12/22 06:33:04;;;;;;;3.80;1.90;;;6.10;99.90;;;;;;7587873;19;20051;-74
2022/12/22 06:35:36;;;;;;;7.65;2.50;;;6.10;99.90;;;;;;7585259;19;20018;-77
2022/12/22 06:38:08;;;;;;;11.52;4.05;;;6.10;99.90;;;;;;7587942;19;20842;-75
2022/12/22 06:40:40;;;;;;;9.00;3.28;;;6.10;99.90;;;;;;7601081;19;20070;-75
2022/12/22 06:43:12;;;;;;;8.00;4.10;;;6.10;99.90;;;;;;7606767;19;20914;-75
2022/12/22 06:45:44;;;;;;;5.88;3.10;;;6.00;99.90;;;;;;7609851;19;21000;-77
2022/12/22 06:48:17;;;;;;;5.90;2.40;;;6.10;99.90;;;;;;7586598;19;20026;-77
2022/12/22 06:50:50;;;;;;;5.05;3.22;;;6.20;99.90;;;;;;7608694;19;20853;-76
2022/12/22 06:53:22;;;;;;;6.47;3.00;;;6.30;99.90;;;;;;7612444;19;21228;-76
2022/12/22 06:55:54;;;;;;;4.82;2.38;;;6.50;99.90;;;;;;7595166;19;20379;-76
2022/12/22 06:58:26;;;;;;;2.65;2.13;;;6.60;99.90;;;;;;7594238;19;20092;-77
2022/12/22 07:00:58;;;;;;;4.15;2.22;;;6.70;99.90;;;;;;7594996;19;20338;-76
2022/12/22 07:03:30;;;;;;;17.40;4.50;;;6.70;99.90;;;;;;7604269;19;20033;-76
2022/12/22 07:06:03;;;;;;;2.22;1.60;;;6.60;99.90;;;;;;7600049;19;20403;-76
2022/12/22 07:08:35;;;;;;;3.05;1.40;;;6.70;99.90;;;;;;7609166;19;20025;-76
2022/12/22 07:11:07;;;;;;;5.40;2.00;;;6.70;99.90;;;;;;7599298;19;20859;-76
2022/12/22 07:13:40;;;;;;;4.97;2.47;;;6.70;99.90;;;;;;7608528;19;20029;-77
2022/12/22 07:16:12;;;;;;;4.65;1.48;;;6.80;99.90;;;;;;7604986;19;20722;-77
2022/12/22 07:18:44;;;;;;;2.50;1.23;;;6.90;99.90;;;;;;7609723;19;20015;-76
2022/12/22 07:21:16;;;;;;;5.97;1.40;;;6.90;99.90;;;;;;7609616;19;20022;-75
2022/12/22 07:23:48;;;;;;;1.90;1.60;;;6.90;99.90;;;;;;7612193;19;20018;-75
2022/12/22 07:26:20;;;;;;;4.03;1.15;;;6.90;99.90;;;;;;7605724;19;20023;-77
2022/12/22 07:28:52;;;;;;;4.70;1.40;;;7.00;99.90;;;;;;7607279;19;20018;-74
2022/12/22 07:31:24;;;;;;;2.10;1.50;;;7.00;99.90;;;;;;7607083;19;20025;-74
2022/12/22 07:33:56;;;;;;;4.50;1.30;;;7.10;99.90;;;;;;7605661;19;20014;-75
2022/12/22 07:36:28;;;;;;;6.65;1.42;;;7.20;99.90;;;;;;7611691;19;20022;-75
2022/12/22 07:39:01;;;;;;;2.35;1.50;;;7.30;99.90;;;;;;7609376;19;20025;-75
2022/12/22 07:44:24;;;;;;;2.70;1.65;;;7.40;99.90;;;;;;7583494;19;20088;-77
2022/12/22 07:46:56;;;;;;;2.65;1.55;;;7.30;99.90;;;;;;7604158;19;20023;-76
2022/12/22 07:52:18;;;;;;;2.15;1.40;;;7.30;99.90;;;;;;7605036;19;20097;-78
2022/12/22 07:54:50;;;;;;;3.42;1.60;;;7.20;99.90;;;;;;7600397;19;20021;-77
2022/12/22 07:57:25;;;;;;;13.15;5.50;;;7.20;99.90;;;;;;7607477;19;20144;-77
2022/12/22 07:59:57;;;;;;;9.10;3.60;;;7.10;99.90;;;;;;7594404;19;20015;-77
2022/12/22 08:02:29;;;;;;;11.93;5.88;;;7.00;99.90;;;;;;7616955;19;20022;-77
2022/12/22 08:05:09;;;;;;;10.95;4.68;;;7.00;99.90;;;;;;7609244;19;20049;-74
2022/12/22 08:07:42;;;;;;;4.05;2.13;;;7.00;99.90;;;;;;7609435;19;20014;-75
2022/12/22 08:10:16;;;;;;;3.92;2.78;;;7.10;99.90;;;;;;7603099;19;20019;-74
2022/12/22 08:12:48;;;;;;;3.40;2.03;;;7.20;99.90;;;;;;7608759;19;20105;-74
2022/12/22 08:15:20;;;;;;;4.13;2.00;;;7.30;99.90;;;;;;7597045;19;20105;-76
2022/12/22 08:17:52;;;;;;;6.10;2.13;;;7.60;99.90;;;;;;7612235;19;20029;-76
2022/12/22 08:20:24;;;;;;;6.07;2.05;;;7.70;99.90;;;;;;7615467;19;20025;-76
2022/12/22 08:22:57;;;;;;;7.05;2.40;;;7.80;99.90;;;;;;7609225;19;20030;-75
2022/12/22 08:25:30;;;;;;;2.78;1.55;;;8.00;99.90;;;;;;7605515;19;20020;-76
2022/12/22 08:28:03;;;;;;;4.07;1.55;;;7.90;99.90;;;;;;7604977;19;20015;-76
2022/12/22 08:30:35;;;;;;;3.25;1.60;;;8.20;99.90;;;;;;7613246;19;20015;-74
2022/12/22 08:33:07;;;;;;;4.60;1.63;;;8.40;99.90;;;;;;7600608;19;20050;-75
2022/12/22 08:35:39;;;;;;;3.47;1.38;;;8.40;99.90;;;;;;7616430;19;20021;-76
2022/12/22 08:38:12;;;;;;;5.32;1.38;;;8.50;99.90;;;;;;7611202;19;20021;-77
2022/12/22 08:40:46;;;;;;;8.50;1.75;;;8.70;99.90;;;;;;7614694;19;20498;-76
2022/12/22 08:43:20;;;;;;;2.00;1.25;;;9.00;99.90;;;;;;7609102;19;20029;-74
2022/12/22 08:45:52;;;;;;;5.78;1.25;;;9.30;99.90;;;;;;7614771;19;20052;-76
2022/12/22 08:48:24;;;;;;;3.10;1.00;;;9.50;99.90;;;;;;7610309;19;20428;-75
2022/12/22 08:50:56;;;;;;;5.95;1.30;;;9.50;99.90;;;;;;7614403;19;20028;-76
2022/12/22 08:53:28;;;;;;;6.82;1.30;;;9.60;99.90;;;;;;7603307;19;20017;-74
2022/12/22 08:56:20;;;;;;;4.05;1.15;;;9.60;99.90;;;;;;7606335;19;20673;-77
2022/12/22 08:58:53;;;;;;;3.15;0.80;;;9.60;99.90;;;;;;7614905;19;20018;-73
2022/12/22 09:01:25;;;;;;;9.13;1.40;;;9.70;99.90;;;;;;7604504;19;20521;-75
2022/12/22 20:10:23;;;;;;;8.98;2.63;;;9.20;99.90;;;;;;7106642;19;10002264;-75
2022/12/22 20:13:00;;;;;;;10.07;2.65;;;9.30;99.90;;;;;;7619806;19;20022;-75
2022/12/22 20:15:36;;;;;;;7.20;2.50;;;9.40;99.90;;;;;;7602532;19;20050;-74
2022/12/22 20:18:19;;;;;;;8.02;2.75;;;9.50;99.90;;;;;;7612880;19;20018;-75
2022/12/22 20:21:00;;;;;;;5.40;1.90;;;9.60;99.90;;;;;;7611079;19;20451;-76
2022/12/22 20:23:36;;;;;;;9.25;1.95;;;9.80;99.90;;;;;;7621973;19;20022;-76
2022/12/22 20:26:14;;;;;;;7.28;1.60;;;9.80;99.90;;;;;;7639829;19;20022;-75
2022/12/22 20:28:48;;;;;;;8.48;1.83;;;9.90;99.90;;;;;;7622910;19;20113;-76
2022/12/22 20:31:22;;;;;;;9.90;1.70;;;10.00;99.90;;;;;;7623309;19;20101;-76
2022/12/22 20:33:55;;;;;;;5.57;1.63;;;10.00;99.90;;;;;;7626144;19;20022;-74
2022/12/22 20:36:30;;;;;;;7.47;1.63;;;10.00;99.90;;;;;;7620592;19;20019;-74
2022/12/22 20:39:10;;;;;;;7.78;1.80;;;10.00;99.90;;;;;;7636259;19;20017;-75
2022/12/22 20:41:43;;;;;;;6.20;1.70;;;10.00;99.90;;;;;;7646850;19;20022;-77
2022/12/22 20:44:23;;;;;;;4.95;1.73;;;10.10;99.90;;;;;;7619774;19;20735;-74
2022/12/22 20:46:55;;;;;;;6.32;2.17;;;10.20;99.90;;;;;;7640245;19;20054;-73
2022/12/22 20:49:27;;;;;;;15.15;3.55;;;10.30;99.90;;;;;;7638271;19;20014;-74
2022/12/22 20:52:00;;;;;;;11.82;4.15;;;10.30;99.90;;;;;;7617831;19;20021;-74
2022/12/22 20:54:32;;;;;;;16.92;4.88;;;10.30;99.90;;;;;;7624010;19;20007;-75
2022/12/22 20:57:04;;;;;;;14.48;5.00;;;10.30;99.90;;;;;;7632847;19;20010;-74
2022/12/22 20:59:37;;;;;;;14.33;4.23;;;10.20;99.90;;;;;;7643891;19;21017;-74
2022/12/22 21:02:22;;;;;;;17.55;7.03;;;10.30;99.90;;;;;;7608191;19;20119;-74
2022/12/22 21:04:55;;;;;;;15.90;5.47;;;10.20;99.90;;;;;;7626783;19;20014;-75
2022/12/22 21:07:27;;;;;;;15.68;5.85;;;10.40;99.90;;;;;;7623891;19;20018;-75
2022/12/22 21:09:59;;;;;;;4.30;1.60;;;10.30;99.90;;;;;;7619161;19;21150;-73
2022/12/22 21:12:32;;;;;;;6.47;2.50;;;10.40;99.90;;;;;;7614778;19;20052;-75
2022/12/22 21:15:04;;;;;;;13.68;5.38;;;10.40;99.90;;;;;;7610101;19;20010;-74
2022/12/22 21:17:37;;;;;;;10.70;3.53;;;10.40;99.90;;;;;;7612089;19;20010;-74
2022/12/22 21:20:25;;;;;;;21.65;8.38;;;10.40;99.90;;;;;;7599665;19;20416;-76
2022/12/22 21:22:58;;;;;;;49.20;15.65;;;10.40;99.90;;;;;;7561949;19;20018;-76
2022/12/22 21:25:30;;;;;;;25.25;7.35;;;10.40;99.90;;;;;;7578201;19;20200;-77
2022/12/22 21:28:06;;;;;;;12.93;4.25;;;10.30;99.90;;;;;;7586165;19;21622;-75
2022/12/22 21:30:38;;;;;;;13.48;5.75;;;10.30;99.90;;;;;;7570379;19;20024;-74
2022/12/22 21:33:10;;;;;;;24.17;8.57;;;10.30;99.90;;;;;;7572372;19;20098;-74
2022/12/22 21:35:42;;;;;;;11.93;4.15;;;10.20;99.90;;;;;;7582219;19;20019;-76
2022/12/22 21:38:20;;;;;;;20.85;6.43;;;10.30;99.90;;;;;;7581070;19;20494;-73
2022/12/22 21:40:53;;;;;;;16.52;3.65;;;10.30;99.90;;;;;;7574352;19;20007;-74
